createdAt,value
2023-01-20T00:01:33.560Z,13.27
2023-01-20T00:04:00.419Z,13.87
2023-01-20T00:06:28.039Z,14.53
2023-01-20T00:08:56.900Z,14.17
2023-01-20T00:11:24.135Z,14.00
2023-01-20T00:13:58.690Z,15.13
2023-01-20T00:16:26.936Z,16.10
2023-01-20T00:18:54.070Z,17.43
2023-01-20T00:21:21.246Z,17.23
2023-01-20T00:23:48.653Z,16.53
2023-01-20T00:26:21.168Z,15.93
2023-01-20T00:28:49.005Z,18.20
2023-01-20T00:31:24.380Z,15.67
2023-01-20T00:33:52.461Z,19.43
2023-01-20T00:36:20.882Z,17.37
2023-01-20T00:38:47.880Z,19.50
2023-01-20T00:41:15.278Z,18.13
2023-01-20T00:43:42.053Z,17.40
2023-01-20T00:46:09.188Z,17.50
2023-01-20T00:48:36.535Z,16.87
2023-01-20T00:51:04.925Z,16.83
2023-01-20T00:53:32.327Z,16.67
2023-01-20T00:55:59.102Z,12.93
2023-01-20T00:58:25.910Z,14.10
2023-01-20T01:00:55.089Z,16.37
2023-01-20T01:03:22.543Z,15.10
2023-01-20T01:05:49.235Z,17.50
2023-01-20T01:08:16.104Z,15.33
2023-01-20T01:10:42.863Z,15.30
2023-01-20T01:13:10.114Z,16.43
2023-01-20T01:15:36.867Z,15.33
2023-01-20T01:18:03.964Z,14.63
2023-01-20T01:20:31.047Z,13.73
2023-01-20T01:22:57.762Z,12.20
2023-01-20T01:25:24.598Z,12.60
2023-01-20T01:27:51.307Z,13.07
2023-01-20T01:30:18.144Z,13.73
2023-01-20T01:32:44.930Z,13.30
2023-01-20T01:35:12.181Z,14.07
2023-01-20T01:37:39.238Z,15.37
2023-01-20T01:40:06.756Z,14.23
2023-01-20T01:42:33.512Z,15.70
2023-01-20T01:45:12.949Z,14.83
2023-01-20T01:48:09.877Z,15.33
2023-01-20T01:50:51.683Z,15.77
2023-01-20T01:53:18.526Z,14.70
2023-01-20T01:55:51.176Z,15.33
2023-01-20T01:58:22.974Z,18.00
2023-01-20T02:00:50.118Z,17.87
2023-01-20T02:03:17.324Z,15.73
2023-01-20T02:05:44.924Z,15.50
2023-01-20T02:08:11.666Z,16.13
2023-01-20T02:10:38.382Z,16.23
2023-01-20T02:13:05.440Z,15.37
2023-01-20T02:15:59.882Z,15.87
2023-01-20T02:18:45.832Z,15.60
2023-01-20T02:21:47.011Z,16.13
2023-01-20T02:24:50.633Z,14.77
2023-01-20T02:27:40.450Z,13.97
2023-01-20T02:30:43.975Z,15.83
2023-01-20T02:33:16.988Z,15.30
2023-01-20T02:35:50.996Z,15.27
2023-01-20T02:38:30.183Z,15.50
2023-01-20T02:41:12.077Z,15.67
2023-01-20T02:43:48.804Z,16.70
2023-01-20T02:46:33.139Z,15.30
2023-01-20T02:49:17.211Z,14.77
2023-01-20T02:52:01.813Z,16.37
2023-01-20T02:54:32.636Z,14.40
2023-01-20T02:57:02.362Z,15.90
2023-01-20T02:59:37.235Z,15.93
2023-01-20T03:02:15.207Z,14.43
2023-01-20T03:04:50.219Z,18.33
2023-01-20T03:07:21.848Z,15.10
2023-01-20T03:09:53.478Z,14.93
2023-01-20T03:12:54.563Z,17.57
2023-01-20T03:15:26.444Z,15.77
2023-01-20T03:17:53.374Z,15.27
2023-01-20T03:20:20.356Z,19.37
2023-01-20T03:22:47.175Z,18.77
2023-01-20T03:25:15.149Z,18.33
2023-01-20T03:27:42.741Z,19.00
2023-01-20T03:30:16.898Z,18.87
2023-01-20T03:32:47.261Z,18.53
2023-01-20T03:35:18.106Z,19.10
2023-01-20T03:37:45.790Z,18.43
2023-01-20T03:40:14.600Z,20.40
2023-01-20T03:43:06.663Z,20.27
2023-01-20T03:45:55.226Z,19.17
2023-01-20T03:48:35.469Z,20.17
2023-01-20T03:51:21.697Z,19.53
2023-01-20T03:54:01.189Z,18.40
2023-01-20T03:56:43.852Z,19.83
2023-01-20T03:59:14.195Z,19.70
2023-01-20T04:01:44.396Z,18.87
2023-01-20T04:04:19.607Z,19.47
2023-01-20T04:06:49.251Z,20.87
2023-01-20T04:09:23.431Z,20.10
2023-01-20T04:11:50.890Z,19.20
2023-01-20T04:14:17.735Z,21.07
2023-01-20T04:16:55.726Z,22.00
2023-01-20T04:19:23.036Z,21.33
2023-01-20T04:22:22.266Z,20.17
2023-01-20T04:25:07.556Z,20.87
2023-01-20T04:27:34.305Z,21.00
2023-01-20T04:30:01.025Z,21.80
2023-01-20T04:32:27.782Z,22.67
2023-01-20T04:34:54.541Z,21.73
2023-01-20T04:37:21.258Z,23.50
2023-01-20T04:39:48.087Z,21.93
2023-01-20T04:42:14.834Z,22.10
2023-01-20T04:44:41.551Z,23.87
2023-01-20T04:47:08.268Z,25.27
2023-01-20T04:49:35.596Z,21.77
2023-01-20T04:52:02.327Z,24.40
2023-01-20T04:54:29.038Z,25.33
2023-01-20T04:56:55.862Z,23.57
2023-01-20T04:59:22.745Z,23.07
2023-01-20T05:01:49.601Z,26.13
2023-01-20T05:04:16.369Z,25.47
2023-01-20T05:06:44.891Z,25.03
2023-01-20T05:09:15.752Z,24.67
2023-01-20T05:11:43.654Z,24.83
2023-01-20T05:14:13.761Z,26.13
2023-01-20T05:16:40.629Z,25.20
2023-01-20T05:19:07.374Z,24.50
2023-01-20T05:21:34.148Z,24.37
2023-01-20T05:24:00.909Z,27.53
2023-01-20T05:26:27.764Z,25.70
2023-01-20T05:28:54.540Z,24.67
2023-01-20T05:31:21.435Z,24.67
2023-01-20T05:33:48.216Z,29.07
2023-01-20T05:36:14.910Z,30.47
2023-01-20T05:38:41.756Z,26.47
2023-01-20T05:41:09.878Z,26.90
2023-01-20T05:43:36.875Z,24.97
2023-01-20T05:46:04.295Z,27.97
2023-01-20T05:48:31.214Z,27.17
2023-01-20T05:50:58.054Z,26.53
2023-01-20T05:53:25.040Z,27.23
2023-01-20T05:56:02.494Z,24.23
2023-01-20T05:58:30.092Z,28.67
2023-01-20T06:01:05.088Z,26.40
2023-01-20T06:03:31.903Z,26.43
2023-01-20T06:06:07.663Z,26.40
2023-01-20T06:08:35.440Z,28.70
2023-01-20T06:11:02.467Z,27.50
2023-01-20T06:13:29.185Z,29.30
2023-01-20T06:15:56.646Z,27.67
2023-01-20T06:18:24.231Z,29.30
2023-01-20T06:20:51.303Z,27.33
2023-01-20T06:23:18.131Z,29.80
2023-01-20T06:25:44.847Z,29.63
2023-01-20T06:28:11.759Z,30.77
2023-01-20T06:30:38.687Z,31.30
2023-01-20T06:33:10.459Z,29.10
2023-01-20T06:35:37.775Z,30.20
2023-01-20T06:38:04.608Z,32.17
2023-01-20T06:40:31.865Z,29.63
2023-01-20T06:42:59.031Z,30.37
2023-01-20T06:45:25.875Z,29.30
2023-01-20T06:47:52.608Z,29.17
2023-01-20T06:50:19.318Z,30.03
2023-01-20T06:52:46.025Z,31.00
2023-01-20T06:55:13.291Z,28.37
2023-01-20T06:57:40.123Z,28.83
2023-01-20T07:00:07.741Z,30.80
2023-01-20T07:02:34.478Z,29.10
2023-01-20T07:05:01.291Z,32.97
2023-01-20T07:07:28.000Z,29.60
2023-01-20T07:09:55.250Z,31.37
2023-01-20T07:12:22.073Z,27.73
2023-01-20T07:14:48.802Z,31.00
2023-01-20T07:17:15.548Z,28.90
2023-01-20T07:19:42.248Z,29.47
2023-01-20T07:22:09.042Z,30.50
2023-01-20T07:24:35.974Z,28.83
2023-01-20T07:27:02.829Z,30.33
2023-01-20T07:29:29.636Z,30.10
2023-01-20T07:31:56.373Z,29.57
2023-01-20T07:34:23.247Z,30.43
2023-01-20T07:36:53.395Z,27.97
2023-01-20T07:39:20.412Z,29.03
2023-01-20T07:41:49.646Z,27.47
2023-01-20T07:44:17.192Z,26.97
2023-01-20T07:46:43.946Z,29.07
2023-01-20T07:49:12.316Z,27.80
2023-01-20T07:51:39.852Z,28.83
2023-01-20T07:54:06.839Z,31.33
2023-01-20T07:56:33.714Z,27.50
2023-01-20T07:59:00.474Z,28.43
2023-01-20T08:01:30.176Z,29.27
2023-01-20T08:04:00.504Z,31.80
2023-01-20T08:06:27.535Z,28.57
2023-01-20T08:08:57.804Z,30.50
2023-01-20T08:11:25.426Z,28.53
2023-01-20T08:13:52.964Z,29.30
2023-01-20T08:16:20.378Z,27.33
2023-01-20T08:18:47.847Z,26.50
2023-01-20T08:21:23.489Z,27.47
2023-01-20T08:23:51.028Z,28.47
2023-01-20T08:26:19.546Z,26.73
2023-01-20T08:28:47.181Z,29.37
2023-01-20T08:31:16.261Z,26.13
2023-01-20T08:33:44.005Z,27.83
2023-01-20T08:36:20.109Z,25.80
2023-01-20T08:38:48.185Z,25.80
2023-01-20T08:41:20.749Z,27.27
2023-01-20T08:43:47.673Z,27.00
2023-01-20T08:46:16.213Z,27.83
2023-01-20T08:48:43.853Z,26.57
2023-01-20T08:51:16.525Z,27.50
2023-01-20T08:53:43.924Z,28.83
2023-01-20T08:56:11.496Z,26.90
2023-01-20T08:58:39.137Z,28.83
2023-01-20T09:01:11.938Z,27.50
2023-01-20T09:03:39.844Z,27.23
2023-01-20T09:06:07.650Z,27.20
2023-01-20T09:08:34.982Z,25.63
2023-01-20T09:11:06.318Z,24.40
2023-01-20T09:13:33.348Z,24.67
2023-01-20T09:16:00.160Z,27.07
2023-01-20T09:18:27.303Z,23.10
2023-01-20T09:20:54.082Z,21.70
2023-01-20T09:23:20.802Z,21.87
2023-01-20T09:25:47.604Z,19.67
2023-01-20T09:28:14.422Z,20.73
2023-01-20T09:30:42.816Z,19.50
2023-01-20T09:33:11.328Z,18.87
2023-01-20T09:35:38.407Z,19.90
2023-01-20T09:38:24.039Z,20.33
2023-01-20T09:41:09.243Z,22.77
2023-01-20T09:43:57.952Z,19.00
2023-01-20T09:46:30.680Z,20.50
2023-01-20T09:49:21.449Z,19.67
2023-01-20T09:52:48.197Z,18.57
2023-01-20T09:55:19.886Z,19.23
2023-01-20T09:57:53.287Z,17.47
2023-01-20T10:00:23.685Z,18.80
2023-01-20T10:02:56.295Z,18.53
2023-01-20T10:05:33.542Z,16.47
2023-01-20T10:08:12.622Z,15.40
2023-01-20T10:10:57.149Z,18.07
2023-01-20T10:13:38.233Z,16.73
2023-01-20T10:16:12.349Z,16.53
2023-01-20T10:19:00.950Z,15.50
2023-01-20T10:21:36.703Z,15.80
2023-01-20T10:24:33.024Z,16.50
2023-01-20T10:27:04.261Z,17.57
2023-01-20T10:29:35.793Z,15.73
2023-01-20T10:32:09.832Z,18.07
2023-01-20T10:34:46.131Z,15.03
2023-01-20T10:37:15.244Z,15.93
2023-01-20T10:39:52.447Z,15.20
2023-01-20T10:42:20.608Z,15.87
2023-01-20T10:44:49.545Z,15.10
2023-01-20T10:47:41.931Z,13.77
2023-01-20T10:50:28.233Z,15.53
2023-01-20T10:53:13.703Z,13.40
2023-01-20T10:56:16.168Z,14.30
2023-01-20T10:58:47.665Z,13.67
2023-01-20T11:01:17.412Z,12.57
2023-01-20T11:03:47.643Z,13.77
2023-01-20T11:06:23.350Z,13.90
2023-01-20T11:08:50.943Z,13.17
2023-01-20T11:11:23.540Z,12.83
2023-01-20T11:13:51.835Z,13.13
2023-01-20T11:16:28.750Z,13.73
2023-01-20T11:19:01.523Z,13.07
2023-01-20T11:21:31.735Z,14.73
2023-01-20T11:23:59.843Z,15.57
2023-01-20T11:26:36.417Z,15.33
2023-01-20T11:29:36.195Z,15.53
2023-01-20T11:32:03.385Z,14.37
2023-01-20T11:34:31.258Z,15.70
2023-01-20T11:37:09.925Z,14.40
2023-01-20T11:39:44.197Z,14.10
2023-01-20T11:42:44.772Z,12.33
2023-01-20T11:45:34.478Z,13.13
2023-01-20T11:48:16.410Z,12.40
2023-01-20T11:50:54.298Z,12.93
2023-01-20T11:53:26.637Z,12.63
2023-01-20T11:55:57.634Z,12.17
2023-01-20T11:58:32.223Z,10.93
2023-01-20T12:01:05.186Z,10.83
2023-01-20T12:03:47.462Z,11.60
2023-01-20T12:06:27.940Z,10.57
2023-01-20T12:09:16.710Z,11.03
2023-01-20T12:11:57.461Z,10.03
2023-01-20T12:14:45.324Z,10.27
2023-01-20T12:17:41.191Z,9.10
2023-01-20T12:20:45.670Z,9.20
2023-01-20T12:23:47.335Z,9.83
2023-01-20T12:26:16.501Z,9.37
2023-01-20T12:29:03.149Z,8.83
2023-01-20T12:31:31.472Z,8.10
2023-01-20T12:34:03.290Z,8.13
2023-01-20T12:37:03.366Z,7.87
2023-01-20T12:39:58.171Z,8.67
2023-01-20T12:42:33.786Z,10.47
2023-01-20T12:45:27.031Z,10.70
2023-01-20T12:48:22.843Z,11.63
2023-01-20T12:51:07.316Z,11.27
2023-01-20T12:54:02.104Z,9.63
2023-01-20T12:56:57.112Z,11.63
2023-01-20T12:59:56.528Z,11.20
2023-01-20T13:02:26.296Z,10.67
2023-01-20T13:05:24.361Z,11.90
2023-01-20T13:08:47.145Z,10.20
2023-01-20T13:11:24.917Z,10.50
2023-01-20T13:14:15.139Z,11.47
2023-01-20T13:16:48.836Z,12.17
2023-01-20T13:19:16.756Z,10.30
2023-01-20T13:21:43.498Z,10.17
2023-01-20T13:24:19.008Z,13.17
2023-01-20T13:26:49.971Z,12.00
2023-01-20T13:29:41.846Z,14.00
2023-01-20T13:32:31.165Z,13.90
2023-01-20T13:34:59.323Z,12.20
2023-01-20T13:37:30.473Z,11.93
2023-01-20T13:39:59.746Z,13.20
2023-01-20T13:42:38.735Z,12.87
2023-01-20T13:45:27.407Z,14.20
2023-01-20T13:48:02.157Z,13.53
2023-01-20T13:50:36.112Z,13.93
2023-01-20T13:53:20.999Z,13.00
2023-01-20T13:55:48.251Z,15.10
2023-01-20T13:58:14.927Z,14.17
2023-01-20T14:00:42.265Z,13.57
2023-01-20T14:03:33.674Z,13.17
2023-01-20T14:06:02.051Z,12.43
2023-01-20T14:08:42.795Z,13.00
2023-01-20T14:11:21.606Z,13.80
2023-01-20T14:13:56.887Z,11.93
2023-01-20T14:16:35.925Z,14.10
2023-01-20T14:19:18.096Z,12.50
2023-01-20T14:21:44.940Z,15.43
2023-01-20T14:24:29.305Z,12.33
2023-01-20T14:27:21.800Z,14.77
2023-01-20T14:29:50.710Z,14.67
2023-01-20T14:32:23.409Z,13.27
2023-01-20T14:34:51.743Z,13.13
2023-01-20T14:37:34.789Z,15.63
2023-01-20T14:40:23.588Z,14.97
2023-01-20T14:43:15.163Z,14.47
2023-01-20T14:45:46.410Z,14.40
2023-01-20T14:48:28.274Z,13.97
2023-01-20T14:51:02.578Z,14.57
2023-01-20T14:53:29.485Z,15.73
2023-01-20T14:56:21.949Z,13.67
2023-01-20T14:58:51.996Z,12.57
2023-01-20T15:01:22.834Z,13.67
2023-01-20T15:03:58.355Z,12.53
2023-01-20T15:06:26.295Z,14.27
2023-01-20T15:09:06.056Z,11.53
2023-01-20T15:11:35.575Z,10.93
2023-01-20T15:14:02.307Z,11.60
2023-01-20T15:16:30.356Z,10.17
2023-01-20T15:19:22.612Z,12.47
2023-01-20T15:21:51.642Z,12.20
2023-01-20T15:24:20.407Z,12.07
2023-01-20T15:26:49.757Z,11.20
2023-01-20T15:29:36.533Z,10.53
2023-01-20T15:32:10.882Z,11.00
2023-01-20T15:34:37.790Z,11.20
2023-01-20T15:37:14.663Z,10.77
2023-01-20T15:39:41.446Z,10.73
2023-01-20T15:42:11.523Z,11.93
2023-01-20T15:44:38.279Z,11.37
2023-01-20T15:47:21.734Z,9.40
2023-01-20T15:49:48.510Z,11.47
2023-01-20T15:52:15.207Z,11.40
2023-01-20T15:54:41.915Z,10.83
2023-01-20T15:57:16.414Z,10.63
2023-01-20T15:59:46.339Z,11.53
2023-01-20T16:02:20.878Z,12.10
2023-01-20T16:04:47.806Z,11.07
2023-01-20T16:07:16.645Z,10.70
2023-01-20T16:09:44.376Z,11.70
2023-01-20T16:12:18.365Z,9.70
2023-01-20T16:14:45.572Z,11.13
2023-01-20T16:17:13.558Z,10.73
2023-01-20T16:19:41.018Z,10.37
2023-01-20T16:22:08.728Z,10.80
2023-01-20T16:24:35.515Z,10.73
2023-01-20T16:27:04.351Z,10.70
2023-01-20T16:29:31.819Z,10.83
2023-01-20T16:31:58.666Z,10.87
2023-01-20T16:34:25.446Z,12.90
2023-01-20T16:36:52.205Z,10.03
2023-01-20T16:39:19.008Z,11.47
2023-01-20T16:41:49.431Z,10.30
2023-01-20T16:44:16.407Z,11.40
2023-01-20T16:46:47.074Z,10.40
2023-01-20T16:49:14.160Z,9.30
2023-01-20T16:51:41.010Z,9.77
2023-01-20T16:54:07.835Z,8.67
2023-01-20T16:56:35.357Z,10.67
2023-01-20T16:59:03.162Z,9.33
2023-01-20T17:01:30.777Z,12.30
2023-01-20T17:04:02.610Z,10.10
2023-01-20T17:06:32.035Z,11.27
2023-01-20T17:09:01.187Z,9.63
2023-01-20T17:11:33.875Z,9.77
2023-01-20T17:14:06.166Z,9.77
2023-01-20T17:16:33.285Z,10.33
2023-01-20T17:19:01.461Z,10.40
2023-01-20T17:21:31.058Z,11.00
2023-01-20T17:24:01.430Z,11.30
2023-01-20T17:26:29.096Z,10.00
2023-01-20T17:29:02.283Z,12.50
2023-01-20T17:31:31.802Z,10.90
2023-01-20T17:33:58.840Z,10.20
2023-01-20T17:36:25.620Z,11.33
2023-01-20T17:38:52.353Z,11.13
2023-01-20T17:41:19.119Z,9.40
2023-01-20T17:43:46.581Z,10.73
2023-01-20T17:46:19.278Z,11.40
2023-01-20T17:48:46.800Z,16.13
2023-01-20T17:51:16.129Z,16.70
2023-01-20T17:53:43.560Z,12.23
2023-01-20T17:56:13.018Z,9.87
2023-01-20T17:58:42.186Z,9.40
2023-01-20T18:01:16.573Z,10.63
2023-01-20T18:03:44.781Z,9.50
2023-01-20T18:06:14.781Z,10.27
2023-01-20T18:08:42.144Z,10.20
2023-01-20T18:11:19.539Z,9.77
2023-01-20T18:13:47.577Z,10.60
2023-01-20T18:16:16.401Z,11.07
2023-01-20T18:18:44.838Z,11.50
2023-01-20T18:21:22.779Z,12.57
2023-01-20T18:23:50.809Z,13.37
2023-01-20T18:26:21.156Z,13.63
2023-01-20T18:28:48.395Z,12.63
2023-01-20T18:31:20.562Z,15.97
2023-01-20T18:33:49.578Z,13.70
2023-01-20T18:36:20.038Z,12.63
2023-01-20T18:38:55.466Z,12.97
2023-01-20T18:41:22.762Z,11.97
2023-01-20T18:43:50.266Z,14.70
2023-01-20T18:46:17.778Z,12.40
2023-01-20T18:48:45.977Z,11.07
2023-01-20T18:51:17.746Z,10.77
2023-01-20T18:53:46.702Z,10.03
2023-01-20T18:56:15.459Z,11.23
2023-01-20T18:58:47.001Z,10.63
2023-01-20T19:01:16.647Z,10.27
2023-01-20T19:03:46.008Z,12.73
2023-01-20T19:06:34.719Z,12.30
2023-01-20T19:09:01.861Z,9.80
2023-01-20T19:11:31.639Z,12.83
2023-01-20T19:13:59.088Z,11.53
2023-01-20T19:16:32.376Z,10.00
2023-01-20T19:19:01.627Z,12.37
2023-01-20T19:21:31.337Z,11.43
2023-01-20T19:24:01.415Z,10.40
2023-01-20T19:26:28.882Z,11.33
2023-01-20T19:29:22.036Z,10.87
2023-01-20T19:31:49.508Z,10.00
2023-01-20T19:34:16.338Z,11.83
2023-01-20T19:36:43.133Z,10.43
2023-01-20T19:39:09.930Z,9.87
2023-01-20T19:41:38.839Z,8.97
2023-01-20T19:44:06.837Z,8.67
2023-01-20T19:46:36.903Z,8.47
2023-01-20T19:49:03.851Z,11.93
2023-01-20T19:51:31.434Z,9.03
2023-01-20T19:54:00.702Z,8.83
2023-01-20T19:56:30.419Z,8.90
2023-01-20T19:58:57.888Z,8.27
2023-01-20T20:01:29.192Z,8.63
2023-01-20T20:03:58.404Z,9.27
2023-01-20T20:06:26.800Z,12.27
2023-01-20T20:09:13.490Z,9.43
2023-01-20T20:11:40.577Z,9.77
2023-01-20T20:14:10.619Z,8.50
2023-01-20T20:16:38.542Z,6.90
2023-01-20T20:19:06.845Z,6.50
2023-01-20T20:21:34.555Z,7.40
2023-01-20T20:24:01.881Z,5.27
2023-01-20T20:26:30.978Z,5.50
2023-01-20T20:28:59.725Z,5.43
2023-01-20T20:31:29.315Z,5.47
2023-01-20T20:33:58.252Z,4.07
2023-01-20T20:36:28.164Z,4.13
2023-01-20T20:38:55.546Z,5.07
2023-01-20T20:41:22.405Z,4.63
2023-01-20T20:43:49.294Z,3.73
2023-01-20T20:46:16.517Z,6.40
2023-01-20T20:48:43.390Z,5.77
2023-01-20T20:51:13.818Z,6.67
2023-01-20T20:53:41.612Z,5.13
2023-01-20T20:56:15.857Z,7.70
2023-01-20T20:58:59.803Z,7.27
2023-01-20T21:01:28.617Z,7.07
2023-01-20T21:03:57.539Z,9.70
2023-01-20T21:06:24.782Z,10.97
2023-01-20T21:08:51.931Z,9.10
2023-01-20T21:11:20.117Z,8.70
2023-01-20T21:13:49.089Z,7.87
2023-01-20T21:16:20.746Z,7.30
2023-01-20T21:18:48.325Z,6.37
2023-01-20T21:21:17.115Z,5.80
2023-01-20T21:23:49.571Z,5.67
2023-01-20T21:26:16.513Z,4.10
2023-01-20T21:28:44.385Z,3.57
2023-01-20T21:31:13.349Z,4.63
2023-01-20T21:33:41.418Z,4.63
2023-01-20T21:36:09.387Z,4.07
2023-01-20T21:38:37.414Z,3.93
2023-01-20T21:41:09.916Z,5.20
2023-01-20T21:44:00.262Z,3.33
2023-01-20T21:46:38.403Z,2.80
2023-01-20T21:49:24.317Z,3.80
2023-01-20T21:52:09.798Z,3.97
2023-01-20T21:54:38.887Z,3.20
2023-01-20T21:57:05.654Z,3.30
2023-01-20T21:59:32.666Z,3.30
2023-01-20T22:01:59.505Z,2.20
2023-01-20T22:04:26.280Z,3.60
2023-01-20T22:06:53.027Z,2.70
2023-01-20T22:09:19.712Z,3.13
2023-01-20T22:11:46.520Z,2.70
2023-01-20T22:14:13.545Z,3.80
2023-01-20T22:16:40.618Z,2.33
2023-01-20T22:19:07.446Z,2.17
2023-01-20T22:21:34.222Z,2.60
2023-01-20T22:24:03.224Z,3.43
2023-01-20T22:26:30.106Z,2.80
2023-01-20T22:28:57.146Z,2.57
2023-01-20T22:31:24.890Z,2.37
2023-01-20T22:33:57.165Z,4.17
2023-01-20T22:36:25.068Z,2.50
2023-01-20T22:38:53.011Z,2.77
2023-01-20T22:41:20.899Z,2.77
2023-01-20T22:43:48.285Z,3.07
2023-01-20T22:46:17.412Z,2.17
2023-01-20T22:48:45.082Z,4.57
2023-01-20T22:51:17.059Z,2.57
2023-01-20T22:53:44.488Z,3.73
2023-01-20T22:56:14.470Z,3.27
2023-01-20T22:58:42.476Z,3.33
2023-01-20T23:01:14.320Z,3.13
2023-01-20T23:03:42.196Z,3.70
2023-01-20T23:06:09.704Z,4.97
2023-01-20T23:08:36.795Z,3.57
2023-01-20T23:11:06.524Z,3.80
2023-01-20T23:13:33.611Z,3.50
2023-01-20T23:16:00.398Z,3.63
2023-01-20T23:18:27.200Z,4.00
2023-01-20T23:20:54.607Z,3.37
2023-01-20T23:23:21.914Z,4.17
2023-01-20T23:25:48.762Z,2.93
2023-01-20T23:28:16.189Z,2.30
2023-01-20T23:30:43.826Z,2.90
2023-01-20T23:33:10.780Z,2.10
2023-01-20T23:35:40.828Z,1.30
2023-01-20T23:38:07.868Z,3.03
2023-01-20T23:40:35.454Z,1.87
2023-01-20T23:43:02.470Z,1.83
2023-01-20T23:45:29.342Z,1.50
2023-01-20T23:47:56.456Z,1.73
2023-01-20T23:50:23.191Z,2.40
2023-01-20T23:52:49.984Z,3.33
2023-01-20T23:55:16.897Z,2.47
2023-01-20T23:57:43.757Z,3.43
